Time;durP1;ratioP1;P1;durP2;ratioP2;P2;SDS_P1;SDS_P2;PMS_P1;PMS_P2;Temp;Humidity;BMP_temperature;BMP_pressure;BME280_temperature;BME280_humidity;BME280_pressure;Samples;Min_cycle;Max_cycle;Signal;HPM_P1;HPM_P2
2022/09/26 00:02:15;;;;;;;8.88;4.20;;;;;;;;;;4897825;29;20051;-58
2022/09/26 00:04:40;;;;;;;12.07;4.47;;;;;;;;;;4886108;29;20478;-59
2022/09/26 00:07:05;;;;;;;11.25;4.70;;;;;;;;;;4879414;29;20436;-59
2022/09/26 00:09:31;;;;;;;8.02;4.15;;;;;;;;;;4891989;29;20499;-59
2022/09/26 00:11:56;;;;;;;8.60;4.50;;;;;;;;;;4896834;29;20045;-57
2022/09/26 00:14:28;;;;;;;7.30;4.30;;;;;;;;;;4892485;29;20037;-59
2022/09/26 00:16:54;;;;;;;12.00;5.10;;;;;;;;;;4897263;29;20049;-59
2022/09/26 00:19:20;;;;;;;9.18;5.10;;;;;;;;;;4891535;29;20112;-59
2022/09/26 00:21:45;;;;;;;12.50;4.75;;;;;;;;;;4895979;29;20108;-60
2022/09/26 00:24:12;;;;;;;12.25;4.85;;;;;;;;;;4896020;29;20145;-58
2022/09/26 00:26:38;;;;;;;8.88;4.70;;;;;;;;;;4897516;29;20036;-58
2022/09/26 00:29:08;;;;;;;8.55;4.88;;;;;;;;;;4895352;29;20053;-60
2022/09/26 00:31:37;;;;;;;9.63;4.68;;;;;;;;;;4894858;29;20482;-59
2022/09/26 00:34:02;;;;;;;8.68;4.10;;;;;;;;;;4890625;29;20711;-59
2022/09/26 00:36:28;;;;;;;7.65;4.35;;;;;;;;;;4896219;29;20041;-59
2022/09/26 00:38:53;;;;;;;9.13;4.05;;;;;;;;;;4894901;29;20380;-58
2022/09/26 00:41:19;;;;;;;8.23;4.03;;;;;;;;;;4878829;29;20067;-59
2022/09/26 00:43:50;;;;;;;8.65;3.97;;;;;;;;;;4889054;29;20104;-59
2022/09/26 00:46:24;;;;;;;7.45;3.85;;;;;;;;;;4885007;29;20509;-58
2022/09/26 00:49:13;;;;;;;7.13;3.80;;;;;;;;;;4890836;29;20048;-59
2022/09/26 00:51:45;;;;;;;6.60;3.92;;;;;;;;;;4888562;29;20753;-56
2022/09/26 00:54:13;;;;;;;9.18;3.70;;;;;;;;;;4890354;29;20038;-59
2022/09/26 00:56:42;;;;;;;9.57;4.10;;;;;;;;;;4891252;29;20041;-58
2022/09/26 00:59:30;;;;;;;9.20;3.88;;;;;;;;;;4892110;29;20065;-59
2022/09/26 01:01:57;;;;;;;7.82;3.90;;;;;;;;;;4868081;29;20100;-58
2022/09/26 01:04:27;;;;;;;7.80;4.00;;;;;;;;;;4894508;29;20140;-59
2022/09/26 01:06:55;;;;;;;6.53;3.97;;;;;;;;;;4893714;29;20036;-59
2022/09/26 01:09:21;;;;;;;6.40;3.67;;;;;;;;;;4901888;29;20091;-58
2022/09/26 01:11:47;;;;;;;8.38;3.78;;;;;;;;;;4905746;29;20442;-59
2022/09/26 01:14:12;;;;;;;7.43;4.03;;;;;;;;;;4897228;29;20070;-59
2022/09/26 01:16:39;;;;;;;9.52;3.85;;;;;;;;;;4897053;29;20043;-59
2022/09/26 01:19:17;;;;;;;7.43;3.50;;;;;;;;;;4896654;29;20162;-59
2022/09/26 01:22:20;;;;;;;8.02;3.60;;;;;;;;;;4892705;29;20466;-59
2022/09/26 01:25:04;;;;;;;7.15;3.70;;;;;;;;;;4889613;29;20056;-59
2022/09/26 01:27:50;;;;;;;7.15;3.55;;;;;;;;;;4890452;29;20041;-58
2022/09/26 01:30:20;;;;;;;5.57;3.30;;;;;;;;;;4888006;29;20459;-59
2022/09/26 01:32:56;;;;;;;8.50;3.17;;;;;;;;;;4895486;29;20394;-59
2022/09/26 01:35:53;;;;;;;7.05;3.35;;;;;;;;;;4892895;29;20123;-59
2022/09/26 01:38:46;;;;;;;7.20;3.45;;;;;;;;;;4896371;29;20048;-58
2022/09/26 01:41:18;;;;;;;5.50;3.45;;;;;;;;;;4891148;29;20121;-58
2022/09/26 01:43:49;;;;;;;6.43;3.50;;;;;;;;;;4887905;29;20039;-59
2022/09/26 01:46:32;;;;;;;6.50;4.00;;;;;;;;;;4894137;29;20397;-59
2022/09/26 01:49:26;;;;;;;10.70;4.20;;;;;;;;;;4896225;29;20040;-60
2022/09/26 01:52:27;;;;;;;8.00;4.07;;;;;;;;;;4893831;29;20048;-60
2022/09/26 01:55:14;;;;;;;8.00;4.00;;;;;;;;;;4862532;29;20059;-59
2022/09/26 01:58:02;;;;;;;7.70;4.03;;;;;;;;;;4894221;29;20040;-59
2022/09/26 02:00:28;;;;;;;7.20;4.10;;;;;;;;;;4895935;29;20040;-58
2022/09/26 02:02:54;;;;;;;7.43;4.10;;;;;;;;;;4894758;29;20394;-58
2022/09/26 02:05:48;;;;;;;7.38;3.83;;;;;;;;;;4892266;29;20085;-60
2022/09/26 02:08:23;;;;;;;6.57;4.05;;;;;;;;;;4885055;29;20377;-59
2022/09/26 02:10:52;;;;;;;10.68;4.50;;;;;;;;;;4890905;29;20041;-60
2022/09/26 02:13:31;;;;;;;12.50;4.40;;;;;;;;;;4894416;29;20035;-60
2022/09/26 02:16:05;;;;;;;10.65;4.53;;;;;;;;;;4881980;29;20040;-60
2022/09/26 02:18:39;;;;;;;10.35;4.85;;;;;;;;;;4893765;29;20039;-57
2022/09/26 02:21:13;;;;;;;5.80;4.00;;;;;;;;;;4895015;29;20046;-59
2022/09/26 02:23:39;;;;;;;6.13;4.18;;;;;;;;;;4888240;29;20036;-59
2022/09/26 02:26:05;;;;;;;8.77;4.53;;;;;;;;;;4892306;29;20057;-59
2022/09/26 02:28:30;;;;;;;9.63;4.13;;;;;;;;;;4892021;29;20067;-59
2022/09/26 02:31:00;;;;;;;10.70;4.47;;;;;;;;;;4887577;29;20410;-59
2022/09/26 02:33:27;;;;;;;10.50;4.60;;;;;;;;;;4894768;29;20521;-59
2022/09/26 02:35:53;;;;;;;10.55;4.70;;;;;;;;;;4893429;29;20039;-60
2022/09/26 02:38:24;;;;;;;9.55;4.57;;;;;;;;;;4892746;29;20099;-61
2022/09/26 02:40:59;;;;;;;7.55;4.32;;;;;;;;;;4889624;29;20151;-58
2022/09/26 02:43:39;;;;;;;11.38;4.63;;;;;;;;;;4894409;29;20131;-59
2022/09/26 02:46:13;;;;;;;8.88;4.72;;;;;;;;;;4889106;29;20136;-60
2022/09/26 02:49:00;;;;;;;13.88;5.07;;;;;;;;;;4896027;29;20480;-59
2022/09/26 02:51:48;;;;;;;8.82;5.13;;;;;;;;;;4891356;29;20041;-58
2022/09/26 02:54:20;;;;;;;9.38;4.90;;;;;;;;;;4870527;29;20040;-58
2022/09/26 02:57:17;;;;;;;9.18;5.22;;;;;;;;;;4890790;29;20104;-58
2022/09/26 02:59:46;;;;;;;8.18;5.28;;;;;;;;;;4879099;29;20036;-60
2022/09/26 03:02:38;;;;;;;18.42;5.97;;;;;;;;;;4893435;29;20033;-59
2022/09/26 03:05:28;;;;;;;12.18;5.47;;;;;;;;;;4889821;29;20089;-58
2022/09/26 03:08:03;;;;;;;13.07;7.07;;;;;;;;;;4896008;29;20390;-60
2022/09/26 03:10:30;;;;;;;12.15;6.00;;;;;;;;;;4896280;29;20298;-59
2022/09/26 03:13:03;;;;;;;10.15;6.00;;;;;;;;;;4899340;29;20032;-60
2022/09/26 03:15:32;;;;;;;12.63;6.30;;;;;;;;;;4890860;29;20538;-59
2022/09/26 03:17:58;;;;;;;10.55;6.07;;;;;;;;;;4880250;29;20143;-60
2022/09/26 03:20:24;;;;;;;13.77;6.15;;;;;;;;;;4886276;29;20120;-57
2022/09/26 03:22:50;;;;;;;11.13;6.15;;;;;;;;;;4900055;29;20076;-59
2022/09/26 03:25:20;;;;;;;9.25;5.95;;;;;;;;;;4895455;29;20036;-58
2022/09/26 03:27:46;;;;;;;10.25;6.35;;;;;;;;;;4898861;29;20490;-58
2022/09/26 03:30:14;;;;;;;10.52;6.25;;;;;;;;;;4890720;29;20541;-59
2022/09/26 03:32:40;;;;;;;12.65;6.63;;;;;;;;;;4899829;29;20381;-59
2022/09/26 03:35:07;;;;;;;9.98;6.03;;;;;;;;;;4890620;29;20044;-59
2022/09/26 03:37:33;;;;;;;10.75;6.50;;;;;;;;;;4894911;29;20096;-58
2022/09/26 03:40:02;;;;;;;15.73;6.95;;;;;;;;;;4893199;29;20033;-59
2022/09/26 03:42:27;;;;;;;10.52;6.32;;;;;;;;;;4897886;29;20473;-56
2022/09/26 03:44:53;;;;;;;13.50;6.80;;;;;;;;;;4897391;29;20052;-59
2022/09/26 03:47:18;;;;;;;12.25;6.57;;;;;;;;;;4896913;29;20047;-60
2022/09/26 03:49:43;;;;;;;12.25;6.38;;;;;;;;;;4880660;29;20032;-59
2022/09/26 03:52:10;;;;;;;12.95;6.32;;;;;;;;;;4881522;29;20458;-59
2022/09/26 03:54:35;;;;;;;10.55;5.93;;;;;;;;;;4895277;29;20411;-59
2022/09/26 03:57:01;;;;;;;10.40;6.30;;;;;;;;;;4897681;29;20470;-58
2022/09/26 03:59:27;;;;;;;12.25;6.40;;;;;;;;;;4896340;29;20049;-59
2022/09/26 04:01:52;;;;;;;11.35;6.38;;;;;;;;;;4895227;29;20382;-59
2022/09/26 04:04:17;;;;;;;9.45;5.97;;;;;;;;;;4893140;29;20084;-59
2022/09/26 04:06:43;;;;;;;11.95;6.28;;;;;;;;;;4887227;29;20040;-59
2022/09/26 04:09:10;;;;;;;11.57;6.40;;;;;;;;;;4881741;29;20044;-59
2022/09/26 04:11:36;;;;;;;14.60;7.25;;;;;;;;;;4895549;29;20028;-60
2022/09/26 04:14:02;;;;;;;12.50;6.20;;;;;;;;;;4897569;29;20068;-58
2022/09/26 04:16:28;;;;;;;11.85;6.00;;;;;;;;;;4890794;29;20037;-59
2022/09/26 04:18:57;;;;;;;13.60;6.47;;;;;;;;;;4898140;29;20088;-59
2022/09/26 04:21:23;;;;;;;12.55;6.68;;;;;;;;;;4895451;29;20036;-61
2022/09/26 04:23:49;;;;;;;11.85;6.03;;;;;;;;;;4897224;29;20047;-58
2022/09/26 04:26:18;;;;;;;11.45;6.47;;;;;;;;;;4894182;29;20144;-58
2022/09/26 04:28:44;;;;;;;10.98;6.13;;;;;;;;;;4898180;29;20039;-58
2022/09/26 04:31:10;;;;;;;8.75;5.65;;;;;;;;;;4894169;29;20124;-60
2022/09/26 04:33:38;;;;;;;14.38;7.15;;;;;;;;;;4896957;29;20044;-58
2022/09/26 04:36:06;;;;;;;10.45;6.30;;;;;;;;;;4895276;29;20075;-59
2022/09/26 04:38:32;;;;;;;13.88;7.28;;;;;;;;;;4896750;29;20055;-60
2022/09/26 04:41:08;;;;;;;12.57;6.28;;;;;;;;;;4896066;29;20386;-60
2022/09/26 04:43:34;;;;;;;10.52;6.00;;;;;;;;;;4889806;29;20049;-59
2022/09/26 04:46:00;;;;;;;10.30;6.18;;;;;;;;;;4892676;29;20549;-60
2022/09/26 04:48:27;;;;;;;11.25;6.43;;;;;;;;;;4894852;29;20040;-59
2022/09/26 04:50:52;;;;;;;10.88;5.93;;;;;;;;;;4897618;29;20039;-59
2022/09/26 04:53:18;;;;;;;10.88;6.32;;;;;;;;;;4889495;29;20037;-59
2022/09/26 04:55:45;;;;;;;8.57;5.93;;;;;;;;;;4881630;29;20039;-58
2022/09/26 04:58:11;;;;;;;11.65;6.32;;;;;;;;;;4897373;29;20040;-59
2022/09/26 05:00:44;;;;;;;16.23;6.45;;;;;;;;;;4917226;29;20039;-59
2022/09/26 05:03:12;;;;;;;10.30;6.03;;;;;;;;;;4897476;29;20040;-58
2022/09/26 05:05:39;;;;;;;13.13;6.25;;;;;;;;;;4894307;29;20378;-59
2022/09/26 05:08:04;;;;;;;9.95;5.97;;;;;;;;;;4897097;29;20149;-59
2022/09/26 05:10:30;;;;;;;12.38;6.72;;;;;;;;;;4873322;29;20128;-59
2022/09/26 05:12:58;;;;;;;11.30;6.35;;;;;;;;;;4890911;29;20375;-59
2022/09/26 05:15:23;;;;;;;11.95;7.10;;;;;;;;;;4891390;29;20533;-59
2022/09/26 05:17:56;;;;;;;10.98;7.03;;;;;;;;;;4893730;29;20123;-59
2022/09/26 05:20:22;;;;;;;11.45;6.32;;;;;;;;;;4894945;29;20041;-55
2022/09/26 05:22:48;;;;;;;10.73;6.85;;;;;;;;;;4887283;29;20401;-59
2022/09/26 05:27:58;;;;;;;13.30;6.35;;;;;;;;;;4893609;29;20090;-60
2022/09/26 05:30:26;;;;;;;12.88;7.18;;;;;;;;;;4894114;29;20052;-60
2022/09/26 05:32:51;;;;;;;13.48;6.97;;;;;;;;;;4891173;29;20429;-61
2022/09/26 05:35:16;;;;;;;10.82;6.75;;;;;;;;;;4878161;29;20494;-60
2022/09/26 05:37:42;;;;;;;14.55;6.80;;;;;;;;;;4891467;29;20104;-61
2022/09/26 05:43:00;;;;;;;15.68;6.45;;;;;;;;;;4893988;29;20043;-60
2022/09/26 05:45:25;;;;;;;13.83;5.90;;;;;;;;;;4891352;29;20037;-60
2022/09/26 05:47:50;;;;;;;12.30;5.68;;;;;;;;;;4897055;29;20267;-60
2022/09/26 05:50:16;;;;;;;10.27;5.93;;;;;;;;;;4892935;29;20032;-61
2022/09/26 05:52:41;;;;;;;8.20;5.47;;;;;;;;;;4891393;29;20040;-60
2022/09/26 05:55:07;;;;;;;10.95;5.40;;;;;;;;;;4892339;29;20093;-63
2022/09/26 05:57:32;;;;;;;13.50;5.38;;;;;;;;;;4896087;29;20056;-61
2022/09/26 05:59:58;;;;;;;9.90;5.40;;;;;;;;;;4894392;29;20041;-61
2022/09/26 06:02:23;;;;;;;11.90;5.05;;;;;;;;;;4878756;29;20493;-61
2022/09/26 06:04:49;;;;;;;10.55;5.18;;;;;;;;;;4892163;29;20397;-61
2022/09/26 06:07:14;;;;;;;8.55;5.20;;;;;;;;;;4889013;29;20464;-63
2022/09/26 06:09:39;;;;;;;8.93;5.22;;;;;;;;;;4882033;29;20033;-61
2022/09/26 06:12:05;;;;;;;10.00;4.28;;;;;;;;;;4887797;29;20088;-61
2022/09/26 06:14:30;;;;;;;9.55;5.10;;;;;;;;;;4891163;29;20045;-60
2022/09/26 06:16:56;;;;;;;9.48;5.18;;;;;;;;;;4885680;29;20089;-60
2022/09/26 06:19:22;;;;;;;11.43;4.63;;;;;;;;;;4880084;29;20037;-59
2022/09/26 06:21:47;;;;;;;10.60;4.40;;;;;;;;;;4896564;29;20033;-60
2022/09/26 06:24:12;;;;;;;16.75;4.40;;;;;;;;;;4891005;29;20032;-61
2022/09/26 06:26:38;;;;;;;8.90;4.55;;;;;;;;;;4896375;29;20054;-60
2022/09/26 06:29:04;;;;;;;8.70;4.35;;;;;;;;;;4893129;29;20036;-61
2022/09/26 06:31:29;;;;;;;7.45;3.90;;;;;;;;;;4896622;29;20519;-60
2022/09/26 06:33:55;;;;;;;9.38;4.20;;;;;;;;;;4895377;29;20032;-60
2022/09/26 06:36:22;;;;;;;8.82;4.70;;;;;;;;;;4895509;29;20028;-60
2022/09/26 06:38:48;;;;;;;6.50;3.90;;;;;;;;;;4894578;29;20119;-61
2022/09/26 06:41:16;;;;;;;8.40;3.90;;;;;;;;;;4893161;29;20454;-61
2022/09/26 06:43:46;;;;;;;6.88;3.90;;;;;;;;;;4896181;29;20111;-61
2022/09/26 06:46:13;;;;;;;9.02;3.45;;;;;;;;;;4894401;29;20041;-61
2022/09/26 06:48:39;;;;;;;11.43;4.00;;;;;;;;;;4879688;29;20033;-61
2022/09/26 06:51:04;;;;;;;10.73;4.47;;;;;;;;;;4877194;29;20467;-61
2022/09/26 06:53:31;;;;;;;10.15;4.20;;;;;;;;;;4895204;29;20040;-61
2022/09/26 06:55:59;;;;;;;13.00;4.32;;;;;;;;;;4896065;29;20036;-61
2022/09/26 06:58:25;;;;;;;8.32;4.15;;;;;;;;;;4894232;29;20381;-62
2022/09/26 07:00:50;;;;;;;7.68;3.80;;;;;;;;;;4896459;29;20068;-60
2022/09/26 07:03:16;;;;;;;6.90;4.00;;;;;;;;;;4888756;29;20071;-61
2022/09/26 07:05:44;;;;;;;6.93;3.85;;;;;;;;;;4878535;29;20816;-61
2022/09/26 07:08:09;;;;;;;9.88;4.05;;;;;;;;;;4893742;29;20032;-61
2022/09/26 07:10:35;;;;;;;9.13;3.38;;;;;;;;;;4895351;29;20427;-61
2022/09/26 07:13:03;;;;;;;7.38;3.75;;;;;;;;;;4895139;29;20476;-61
2022/09/26 07:15:32;;;;;;;9.13;3.78;;;;;;;;;;4895280;29;20036;-61
2022/09/26 07:18:01;;;;;;;7.72;3.40;;;;;;;;;;4882038;29;20466;-61
2022/09/26 07:20:28;;;;;;;5.72;2.67;;;;;;;;;;4892092;29;20068;-61
2022/09/26 07:22:54;;;;;;;7.43;3.65;;;;;;;;;;4909392;29;20045;-61
2022/09/26 07:25:19;;;;;;;7.38;3.67;;;;;;;;;;4893267;29;20716;-61
2022/09/26 07:27:48;;;;;;;7.07;3.53;;;;;;;;;;4895726;29;20108;-60
2022/09/26 07:30:14;;;;;;;7.68;3.40;;;;;;;;;;4892853;29;20036;-61
2022/09/26 07:32:43;;;;;;;8.05;3.83;;;;;;;;;;4896135;29;20377;-61
2022/09/26 07:35:08;;;;;;;8.45;3.90;;;;;;;;;;4893084;29;20040;-61
2022/09/26 07:37:34;;;;;;;7.68;3.70;;;;;;;;;;4893185;29;20048;-60
2022/09/26 07:39:59;;;;;;;5.32;3.20;;;;;;;;;;4892957;29;20043;-60
2022/09/26 07:42:24;;;;;;;7.55;3.55;;;;;;;;;;4877354;29;20036;-61
2022/09/26 07:44:50;;;;;;;6.85;3.30;;;;;;;;;;4895681;29;20037;-61
2022/09/26 07:50:15;;;;;;;7.35;3.30;;;;;;;;;;4894800;29;20136;-60
2022/09/26 07:52:45;;;;;;;8.05;3.55;;;;;;;;;;4893440;29;20041;-61
2022/09/26 07:55:13;;;;;;;6.95;3.50;;;;;;;;;;4880068;29;20037;-64
2022/09/26 07:57:38;;;;;;;5.78;3.30;;;;;;;;;;4893898;29;20048;-61
2022/09/26 08:00:11;;;;;;;8.93;3.38;;;;;;;;;;4890117;29;20033;-64
2022/09/26 08:02:41;;;;;;;8.02;3.47;;;;;;;;;;4896138;29;20431;-61
2022/09/26 08:05:07;;;;;;;8.98;3.20;;;;;;;;;;4898455;29;20059;-61
2022/09/26 08:07:36;;;;;;;8.18;3.10;;;;;;;;;;4896529;29;20117;-61
2022/09/26 08:10:04;;;;;;;8.32;3.22;;;;;;;;;;4897979;29;20168;-61
2022/09/26 08:12:35;;;;;;;8.15;3.38;;;;;;;;;;4897764;29;20116;-61
2022/09/26 08:15:05;;;;;;;7.10;3.20;;;;;;;;;;4896478;29;20073;-60
2022/09/26 08:17:31;;;;;;;5.95;3.35;;;;;;;;;;4897412;29;20056;-65
2022/09/26 08:19:57;;;;;;;5.63;2.85;;;;;;;;;;4893109;29;20033;-60
2022/09/26 08:22:22;;;;;;;5.50;3.25;;;;;;;;;;4883519;29;20043;-60
2022/09/26 08:24:49;;;;;;;7.80;3.30;;;;;;;;;;4898101;29;20438;-60
2022/09/26 08:27:15;;;;;;;7.53;3.20;;;;;;;;;;4888039;29;20085;-64
2022/09/26 08:29:41;;;;;;;5.88;2.80;;;;;;;;;;4891715;29;20127;-60
2022/09/26 08:32:06;;;;;;;8.70;3.17;;;;;;;;;;4878956;29;20558;-67
2022/09/26 08:34:34;;;;;;;7.10;3.30;;;;;;;;;;4890300;29;20048;-60
2022/09/26 08:36:59;;;;;;;7.05;3.30;;;;;;;;;;4897761;29;20068;-60
2022/09/26 08:39:25;;;;;;;6.85;2.83;;;;;;;;;;4897247;29;20042;-60
2022/09/26 08:42:27;;;;;;;8.48;3.50;;;;;;;;;;4897581;29;20044;-60
2022/09/26 08:48:33;;;;;;;5.30;3.13;;;;;;;;;;4885426;29;20104;-60
2022/09/26 08:51:15;;;;;;;10.18;4.93;;;;;;;;;;4865659;29;20136;-60
2022/09/26 08:53:52;;;;;;;8.45;3.30;;;;;;;;;;4897908;29;20036;-59
2022/09/26 08:56:21;;;;;;;8.15;3.78;;;;;;;;;;4897037;29;20088;-59
2022/09/26 08:58:51;;;;;;;10.35;3.10;;;;;;;;;;4900071;29;20085;-59
2022/09/26 09:01:33;;;;;;;6.80;3.80;;;;;;;;;;4889773;29;20096;-58
2022/09/26 09:04:06;;;;;;;11.27;4.05;;;;;;;;;;4895157;29;20144;-60
2022/09/26 09:06:33;;;;;;;11.75;4.00;;;;;;;;;;4892359;29;20144;-60
2022/09/26 09:08:58;;;;;;;7.57;4.10;;;;;;;;;;4892933;29;20040;-60
2022/09/26 09:11:29;;;;;;;11.13;4.20;;;;;;;;;;4895885;29;20040;-61
2022/09/26 09:14:07;;;;;;;8.02;3.92;;;;;;;;;;4895812;29;20028;-61
2022/09/26 09:16:44;;;;;;;8.88;4.60;;;;;;;;;;4897416;29;20051;-61
2022/09/26 09:19:24;;;;;;;11.73;4.53;;;;;;;;;;4895319;29;20052;-62
2022/09/26 09:22:06;;;;;;;10.07;4.80;;;;;;;;;;4879437;29;20033;-61
2022/09/26 09:24:45;;;;;;;6.75;3.53;;;;;;;;;;4863513;29;20044;-60
2022/09/26 09:27:38;;;;;;;11.07;4.75;;;;;;;;;;4896738;29;20481;-63
2022/09/26 09:30:20;;;;;;;9.20;4.07;;;;;;;;;;4895758;29;20118;-62
2022/09/26 09:33:02;;;;;;;9.02;4.50;;;;;;;;;;4897894;29;20362;-64
2022/09/26 09:35:47;;;;;;;8.00;4.43;;;;;;;;;;4891994;29;20456;-63
2022/09/26 09:38:16;;;;;;;9.15;4.20;;;;;;;;;;4893189;29;20048;-63
2022/09/26 09:40:49;;;;;;;12.68;5.03;;;;;;;;;;4893385;29;20032;-64
2022/09/26 09:43:34;;;;;;;11.00;4.88;;;;;;;;;;4896470;29;20501;-63
2022/09/26 09:46:04;;;;;;;14.88;5.25;;;;;;;;;;4890490;29;20490;-61
2022/09/26 09:48:30;;;;;;;11.73;4.93;;;;;;;;;;4896344;29;20378;-64
2022/09/26 09:51:15;;;;;;;10.52;4.35;;;;;;;;;;4885849;29;20048;-62
2022/09/26 09:54:06;;;;;;;11.82;4.40;;;;;;;;;;4879236;29;20384;-65
2022/09/26 09:56:35;;;;;;;;;;;;;;;;;;4879070;29;20547;-64
2022/09/26 09:59:29;;;;;;;8.60;4.35;;;;;;;;;;4888413;29;19923;-65
2022/09/26 10:02:23;;;;;;;11.27;5.32;;;;;;;;;;4897084;29;20045;-65
2022/09/26 10:05:02;;;;;;;8.25;4.47;;;;;;;;;;4872336;29;20049;-64
2022/09/26 10:07:28;;;;;;;11.15;5.10;;;;;;;;;;4888953;29;20096;-63
2022/09/26 10:09:53;;;;;;;7.45;4.43;;;;;;;;;;4886748;29;20115;-63
2022/09/26 10:12:23;;;;;;;10.70;4.35;;;;;;;;;;4894724;29;20056;-61
2022/09/26 10:15:06;;;;;;;11.95;4.45;;;;;;;;;;4895727;29;20477;-63
2022/09/26 10:17:31;;;;;;;10.23;4.70;;;;;;;;;;4895554;29;20024;-63
2022/09/26 10:19:57;;;;;;;10.00;4.13;;;;;;;;;;4894913;29;20390;-62
2022/09/26 10:22:41;;;;;;;8.05;3.83;;;;;;;;;;4894828;29;20515;-64
2022/09/26 10:25:20;;;;;;;7.25;3.35;;;;;;;;;;4896257;29;20044;-62
2022/09/26 10:27:53;;;;;;;11.23;4.30;;;;;;;;;;4879132;29;20064;-63
2022/09/26 10:30:27;;;;;;;5.70;3.75;;;;;;;;;;4877106;29;20853;-64
2022/09/26 10:32:58;;;;;;;8.68;4.00;;;;;;;;;;4896156;29;20462;-63
2022/09/26 10:35:28;;;;;;;9.75;4.38;;;;;;;;;;4885750;29;20060;-62
2022/09/26 10:38:02;;;;;;;6.10;2.85;;;;;;;;;;4896571;29;20033;-64
2022/09/26 10:40:44;;;;;;;7.10;3.25;;;;;;;;;;4894577;29;20375;-61
2022/09/26 10:43:36;;;;;;;8.60;3.90;;;;;;;;;;4894562;29;20045;-60
2022/09/26 10:46:13;;;;;;;9.35;3.20;;;;;;;;;;4890610;29;20041;-62
2022/09/26 10:48:52;;;;;;;8.25;3.45;;;;;;;;;;4895551;29;20123;-63
2022/09/26 10:51:41;;;;;;;8.80;3.85;;;;;;;;;;4881130;29;20044;-60
2022/09/26 10:54:21;;;;;;;9.27;3.88;;;;;;;;;;4885944;29;20509;-60
2022/09/26 10:56:49;;;;;;;6.03;3.00;;;;;;;;;;4886176;29;20032;-61
2022/09/26 10:59:17;;;;;;;6.30;3.20;;;;;;;;;;4882519;29;20051;-62
2022/09/26 11:01:47;;;;;;;8.73;3.10;;;;;;;;;;4880837;29;20039;-61
2022/09/26 11:07:07;;;;;;;5.88;3.42;;;;;;;;;;4894792;29;20039;-62
2022/09/26 11:09:33;;;;;;;9.50;2.67;;;;;;;;;;4892570;29;20032;-62
2022/09/26 11:12:22;;;;;;;8.00;3.13;;;;;;;;;;4878493;29;20040;-61
2022/09/26 11:14:53;;;;;;;8.93;3.10;;;;;;;;;;4895601;29;20465;-62
2022/09/26 11:17:18;;;;;;;7.07;2.65;;;;;;;;;;4895678;29;20029;-64
2022/09/26 11:19:55;;;;;;;4.55;2.10;;;;;;;;;;4885973;29;20104;-64
2022/09/26 11:22:33;;;;;;;9.90;2.78;;;;;;;;;;4895233;29;20052;-65
2022/09/26 11:25:10;;;;;;;5.32;2.25;;;;;;;;;;4895396;29;20051;-60
2022/09/26 11:27:49;;;;;;;6.97;2.88;;;;;;;;;;4899229;29;20452;-63
2022/09/26 11:30:19;;;;;;;5.32;2.63;;;;;;;;;;4897033;29;20033;-64
2022/09/26 11:32:51;;;;;;;9.38;2.75;;;;;;;;;;4897952;29;20366;-65
2022/09/26 11:35:32;;;;;;;5.13;2.63;;;;;;;;;;4896583;29;20113;-63
2022/09/26 11:38:28;;;;;;;7.18;2.83;;;;;;;;;;4895002;29;20101;-61
2022/09/26 11:41:08;;;;;;;6.35;2.60;;;;;;;;;;4887601;29;20511;-64
2022/09/26 11:43:59;;;;;;;4.00;2.40;;;;;;;;;;4889807;29;20153;-63
2022/09/26 11:47:01;;;;;;;4.57;2.30;;;;;;;;;;4899644;29;20079;-63
2022/09/26 11:49:36;;;;;;;4.43;2.50;;;;;;;;;;4899369;29;20044;-63
2022/09/26 11:52:32;;;;;;;5.75;2.20;;;;;;;;;;4893963;29;20033;-62
2022/09/26 11:55:09;;;;;;;6.32;2.28;;;;;;;;;;4897524;29;20075;-61
2022/09/26 11:58:04;;;;;;;5.93;2.35;;;;;;;;;;4896525;29;20047;-62
2022/09/26 12:00:41;;;;;;;4.97;2.53;;;;;;;;;;4899389;29;20473;-63
2022/09/26 12:03:35;;;;;;;3.83;2.15;;;;;;;;;;4895105;29;20053;-62
2022/09/26 12:06:50;;;;;;;4.70;2.40;;;;;;;;;;4879821;29;20041;-62
2022/09/26 12:09:40;;;;;;;2.63;2.15;;;;;;;;;;4879195;29;20052;-61
2022/09/26 12:12:33;;;;;;;4.38;2.40;;;;;;;;;;4894516;29;20060;-60
2022/09/26 12:15:07;;;;;;;3.95;2.25;;;;;;;;;;4898413;29;20041;-60
2022/09/26 12:18:05;;;;;;;2.53;1.83;;;;;;;;;;4898506;29;20032;-60
2022/09/26 12:20:50;;;;;;;4.30;2.05;;;;;;;;;;4899060;29;20044;-60
2022/09/26 12:24:00;;;;;;;3.10;2.03;;;;;;;;;;4866629;29;20095;-61
2022/09/26 12:26:47;;;;;;;3.60;2.05;;;;;;;;;;4838470;29;20535;-60
2022/09/26 12:29:26;;;;;;;4.97;2.00;;;;;;;;;;4893709;29;20057;-61
2022/09/26 12:32:34;;;;;;;3.08;1.90;;;;;;;;;;4897183;29;20076;-59
2022/09/26 12:35:27;;;;;;;4.47;1.95;;;;;;;;;;4898002;29;20040;-60
2022/09/26 12:38:19;;;;;;;3.85;2.35;;;;;;;;;;4882967;29;20044;-60
2022/09/26 12:41:06;;;;;;;2.30;1.77;;;;;;;;;;4890207;29;20060;-60
2022/09/26 12:44:00;;;;;;;3.33;2.20;;;;;;;;;;4895601;29;20051;-60
2022/09/26 12:46:34;;;;;;;3.50;2.00;;;;;;;;;;4881864;29;20454;-60
2022/09/26 12:49:18;;;;;;;4.35;1.98;;;;;;;;;;4895265;29;20528;-61
2022/09/26 12:51:47;;;;;;;4.43;2.28;;;;;;;;;;4896077;29;20032;-63
2022/09/26 12:54:50;;;;;;;4.68;2.60;;;;;;;;;;4892717;29;20426;-64
2022/09/26 12:57:28;;;;;;;5.72;2.70;;;;;;;;;;4897484;29;20169;-62
2022/09/26 13:00:15;;;;;;;6.53;2.50;;;;;;;;;;4888755;29;20032;-63
2022/09/26 13:03:18;;;;;;;5.60;3.08;;;;;;;;;;4889973;29;20063;-64
2022/09/26 13:06:18;;;;;;;5.10;2.60;;;;;;;;;;4896048;29;20047;-64
2022/09/26 13:08:56;;;;;;;5.03;2.50;;;;;;;;;;4873888;29;20057;-65
2022/09/26 13:11:36;;;;;;;7.18;2.75;;;;;;;;;;4882276;29;20036;-63
2022/09/26 13:14:11;;;;;;;5.13;2.55;;;;;;;;;;4907730;29;20478;-62
2022/09/26 13:16:52;;;;;;;5.10;2.10;;;;;;;;;;4882409;29;20482;-63
2022/09/26 13:19:53;;;;;;;5.70;3.10;;;;;;;;;;4894813;29;20111;-63
2022/09/26 13:22:39;;;;;;;4.63;2.30;;;;;;;;;;4891699;29;20626;-63
2022/09/26 13:25:13;;;;;;;4.07;2.03;;;;;;;;;;4894364;29;20516;-65
2022/09/26 13:28:15;;;;;;;4.78;2.10;;;;;;;;;;4896822;29;20131;-63
2022/09/26 13:30:47;;;;;;;4.93;2.40;;;;;;;;;;4891827;29;20398;-72
2022/09/26 13:33:19;;;;;;;5.57;2.25;;;;;;;;;;4878260;29;20044;-62
2022/09/26 13:35:47;;;;;;;4.28;2.40;;;;;;;;;;4889738;29;20028;-64
2022/09/26 13:38:29;;;;;;;5.45;2.50;;;;;;;;;;4896618;29;20043;-64
2022/09/26 13:41:15;;;;;;;4.13;2.38;;;;;;;;;;4895219;29;20162;-65
2022/09/26 13:43:50;;;;;;;4.05;2.45;;;;;;;;;;4893850;29;20466;-62
2022/09/26 13:46:26;;;;;;;3.05;2.20;;;;;;;;;;4895375;29;21754;-61
2022/09/26 13:49:09;;;;;;;7.20;2.80;;;;;;;;;;4894354;29;20489;-64
2022/09/26 13:52:07;;;;;;;5.40;2.10;;;;;;;;;;4891223;29;20041;-65
2022/09/26 13:54:56;;;;;;;3.92;2.22;;;;;;;;;;4878424;29;20041;-65
2022/09/26 13:57:34;;;;;;;4.00;2.15;;;;;;;;;;4885736;29;20068;-64
2022/09/26 14:00:29;;;;;;;7.05;2.60;;;;;;;;;;4891190;29;20175;-63
2022/09/26 14:03:12;;;;;;;4.05;2.13;;;;;;;;;;4896154;29;20182;-62
2022/09/26 14:05:41;;;;;;;3.53;2.05;;;;;;;;;;4890015;29;20053;-62
2022/09/26 14:11:17;;;;;;;4.38;2.60;;;;;;;;;;4893282;29;20128;-61
2022/09/26 14:13:43;;;;;;;3.88;2.30;;;;;;;;;;4904593;29;20092;-63
2022/09/26 14:16:27;;;;;;;6.88;2.70;;;;;;;;;;4891224;29;20032;-63
2022/09/26 14:19:14;;;;;;;4.53;2.15;;;;;;;;;;4881627;29;20517;-64
2022/09/26 14:21:56;;;;;;;4.00;2.10;;;;;;;;;;4897213;29;20040;-63
2022/09/26 14:24:35;;;;;;;4.78;2.03;;;;;;;;;;4894774;29;20116;-63
2022/09/26 14:27:10;;;;;;;8.57;3.00;;;;;;;;;;4897985;29;20033;-61
2022/09/26 14:29:38;;;;;;;6.93;2.85;;;;;;;;;;4878091;29;20395;-62
2022/09/26 14:32:38;;;;;;;8.20;3.83;;;;;;;;;;4897320;29;20032;-65
2022/09/26 14:35:16;;;;;;;5.57;2.92;;;;;;;;;;4892122;29;20072;-61
2022/09/26 14:37:44;;;;;;;5.75;3.00;;;;;;;;;;4898129;29;20413;-62
2022/09/26 14:40:38;;;;;;;7.30;3.30;;;;;;;;;;4899524;29;20044;-62
2022/09/26 14:43:14;;;;;;;7.75;3.00;;;;;;;;;;4885392;29;20036;-63
2022/09/26 14:45:46;;;;;;;5.50;2.80;;;;;;;;;;4896605;29;20584;-63
2022/09/26 14:48:34;;;;;;;8.32;2.75;;;;;;;;;;4891817;29;20438;-63
2022/09/26 14:51:03;;;;;;;5.35;3.08;;;;;;;;;;4895543;29;20044;-62
2022/09/26 14:53:40;;;;;;;8.60;3.40;;;;;;;;;;4880555;29;20100;-63
2022/09/26 14:56:14;;;;;;;5.63;3.22;;;;;;;;;;4877026;29;20041;-63
2022/09/26 14:58:43;;;;;;;4.85;2.88;;;;;;;;;;4893711;29;20100;-63
2022/09/26 15:01:35;;;;;;;4.03;2.60;;;;;;;;;;4893253;29;20040;-62
2022/09/26 15:04:11;;;;;;;9.02;2.97;;;;;;;;;;4893204;29;20084;-61
2022/09/26 15:06:49;;;;;;;4.32;2.80;;;;;;;;;;4884182;29;20028;-63
2022/09/26 15:09:34;;;;;;;7.32;3.67;;;;;;;;;;4895282;29;20044;-61
2022/09/26 15:12:08;;;;;;;4.85;3.30;;;;;;;;;;4877601;29;20116;-61
2022/09/26 15:15:02;;;;;;;7.47;3.70;;;;;;;;;;4877253;29;20476;-61
2022/09/26 15:17:32;;;;;;;7.07;3.63;;;;;;;;;;4882474;29;20029;-61
2022/09/26 15:20:01;;;;;;;8.10;3.95;;;;;;;;;;4892628;29;20052;-61
2022/09/26 15:22:29;;;;;;;6.22;3.53;;;;;;;;;;4896064;29;20470;-61
2022/09/26 15:25:09;;;;;;;7.63;3.83;;;;;;;;;;4884465;29;20474;-61
2022/09/26 15:27:35;;;;;;;7.78;3.97;;;;;;;;;;4879213;29;20108;-61
2022/09/26 15:30:15;;;;;;;6.40;3.50;;;;;;;;;;4887691;29;20120;-61
2022/09/26 15:32:41;;;;;;;8.13;3.50;;;;;;;;;;4892044;29;20060;-61
2022/09/26 15:35:11;;;;;;;7.50;3.50;;;;;;;;;;4866530;29;20064;-61
2022/09/26 15:37:37;;;;;;;6.68;3.85;;;;;;;;;;4880813;29;20087;-61